createdAt,value
2017-11-25T00:00:18.597Z,7.00
2017-11-25T00:05:21.165Z,7.00
2017-11-25T00:10:23.711Z,7.00
2017-11-25T00:15:26.259Z,7.00
2017-11-25T00:20:28.816Z,6.90
2017-11-25T00:25:31.376Z,6.90
2017-11-25T00:30:33.913Z,6.90
2017-11-25T00:35:36.459Z,6.90
2017-11-25T00:40:39.011Z,6.90
2017-11-25T00:45:42.327Z,6.90
2017-11-25T00:50:44.880Z,6.90
2017-11-25T00:55:47.424Z,6.90
2017-11-25T01:00:49.995Z,6.90
2017-11-25T01:05:52.543Z,6.90
2017-11-25T01:10:55.856Z,6.80
2017-11-25T01:15:58.396Z,6.80
2017-11-25T01:21:00.956Z,6.80
2017-11-25T01:26:03.499Z,6.80
2017-11-25T01:31:06.052Z,6.80
2017-11-25T01:36:09.361Z,6.80
2017-11-25T01:41:11.903Z,6.80
2017-11-25T01:46:14.440Z,6.80
2017-11-25T01:51:17.003Z,6.80
2017-11-25T01:56:19.564Z,6.80
2017-11-25T02:01:22.930Z,6.70
2017-11-25T02:06:25.464Z,6.70
2017-11-25T02:11:28.051Z,6.70
2017-11-25T02:16:30.600Z,6.70
2017-11-25T02:21:33.141Z,6.70
2017-11-25T02:26:35.689Z,6.70
2017-11-25T02:31:38.240Z,6.70
2017-11-25T02:36:40.789Z,6.60
2017-11-25T02:41:43.337Z,6.60
2017-11-25T02:46:45.880Z,6.60
2017-11-25T02:51:49.186Z,6.60
2017-11-25T02:56:52.500Z,6.60
2017-11-25T03:01:55.837Z,6.60
2017-11-25T03:06:58.402Z,6.50
2017-11-25T03:12:00.948Z,6.50
2017-11-25T03:17:03.507Z,6.50
2017-11-25T03:22:06.107Z,6.50
2017-11-25T03:27:09.422Z,6.40
2017-11-25T03:32:11.983Z,6.50
2017-11-25T03:37:14.520Z,6.50
2017-11-25T03:42:17.867Z,6.40
2017-11-25T03:47:20.410Z,6.40
2017-11-25T03:52:23.728Z,6.40
2017-11-25T03:57:26.272Z,6.40
2017-11-25T04:02:29.582Z,6.30
2017-11-25T04:07:32.136Z,6.30
2017-11-25T04:12:34.672Z,6.30
2017-11-25T04:17:37.199Z,6.20
2017-11-25T04:22:39.746Z,6.20
2017-11-25T04:27:42.272Z,6.20
2017-11-25T04:32:44.800Z,6.10
2017-11-25T04:37:47.332Z,6.10
2017-11-25T04:42:49.876Z,6.00
2017-11-25T04:47:52.453Z,6.00
2017-11-25T04:52:55.047Z,6.00
2017-11-25T04:57:57.588Z,5.90
2017-11-25T05:03:00.133Z,5.90
2017-11-25T05:08:02.682Z,5.90
2017-11-25T05:13:05.252Z,5.80
2017-11-25T05:18:07.799Z,5.80
2017-11-25T05:23:10.369Z,5.80
2017-11-25T05:28:12.912Z,5.70
2017-11-25T05:33:15.446Z,5.70
2017-11-25T05:38:18.736Z,5.60
2017-11-25T05:43:21.277Z,5.60
2017-11-25T05:48:23.828Z,5.60
2017-11-25T05:53:26.379Z,5.60
2017-11-25T05:58:28.908Z,5.60
2017-11-25T06:03:31.432Z,5.50
2017-11-25T06:08:33.948Z,5.50
2017-11-25T06:13:36.507Z,5.50
2017-11-25T06:18:39.042Z,5.50
2017-11-25T06:23:41.601Z,5.50
2017-11-25T06:28:44.153Z,5.50
2017-11-25T06:33:47.468Z,5.40
2017-11-25T06:38:50.001Z,5.40
2017-11-25T06:43:52.545Z,5.40
2017-11-25T06:48:55.088Z,5.40
2017-11-25T06:53:57.624Z,5.40
2017-11-25T06:59:00.177Z,5.40
2017-11-25T07:04:02.714Z,5.40
2017-11-25T07:09:05.270Z,5.40
2017-11-25T07:14:07.816Z,5.40
2017-11-25T07:19:10.369Z,5.40
2017-11-25T07:24:12.924Z,5.30
2017-11-25T07:29:15.465Z,5.30
2017-11-25T07:34:18.016Z,5.30
2017-11-25T07:39:20.569Z,5.30
2017-11-25T07:44:23.130Z,5.40
2017-11-25T07:49:25.769Z,5.40
2017-11-25T07:54:28.326Z,5.40
2017-11-25T07:59:30.861Z,5.40
2017-11-25T08:04:33.400Z,5.40
2017-11-25T08:09:35.963Z,5.40
2017-11-25T08:14:38.521Z,5.50
2017-11-25T08:19:41.114Z,5.50
2017-11-25T08:24:43.652Z,5.50
2017-11-25T08:29:46.187Z,5.50
2017-11-25T08:34:48.738Z,5.60
2017-11-25T08:39:51.312Z,5.60
2017-11-25T08:44:53.850Z,5.70
2017-11-25T08:49:56.398Z,5.70
2017-11-25T08:54:58.944Z,5.80
2017-11-25T09:00:01.486Z,5.90
2017-11-25T09:05:04.024Z,6.00
2017-11-25T09:10:07.366Z,6.20
2017-11-25T09:15:09.907Z,6.20
2017-11-25T09:20:12.448Z,6.30
2017-11-25T09:25:15.001Z,6.30
2017-11-25T09:30:17.544Z,6.40
2017-11-25T09:35:20.077Z,6.40
2017-11-25T09:40:22.628Z,6.40
2017-11-25T09:45:25.978Z,6.40
2017-11-25T09:50:28.510Z,6.40
2017-11-25T09:55:31.056Z,6.40
2017-11-25T10:00:33.613Z,6.40
2017-11-25T10:05:36.148Z,6.40
2017-11-25T10:10:38.683Z,6.40
2017-11-25T10:15:41.244Z,6.40
2017-11-25T10:20:43.792Z,6.40
2017-11-25T10:25:46.341Z,6.50
2017-11-25T10:30:49.657Z,6.50
2017-11-25T10:35:52.956Z,6.50
2017-11-25T10:40:56.267Z,6.50
2017-11-25T10:45:58.839Z,6.50
2017-11-25T10:51:01.385Z,6.50
2017-11-25T10:56:04.696Z,6.50
2017-11-25T11:01:07.237Z,6.50
2017-11-25T11:06:09.768Z,6.50
2017-11-25T11:11:12.337Z,6.50
2017-11-25T11:16:14.908Z,6.50
2017-11-25T11:21:17.452Z,6.50
2017-11-25T11:26:20.005Z,6.50
2017-11-25T11:31:22.576Z,6.50
2017-11-25T11:36:25.112Z,6.50
2017-11-25T11:41:27.656Z,6.50
2017-11-25T11:46:30.188Z,6.50
2017-11-25T11:51:32.744Z,6.50
2017-11-25T11:56:35.299Z,6.50
2017-11-25T12:01:37.840Z,6.50
2017-11-25T12:06:40.384Z,6.50
2017-11-25T12:11:42.986Z,6.50
2017-11-25T12:16:45.532Z,6.50
2017-11-25T12:21:48.063Z,6.50
2017-11-25T12:26:50.620Z,6.50
2017-11-25T12:31:53.164Z,6.50
2017-11-25T12:36:56.472Z,6.60
2017-11-25T12:41:59.032Z,6.50
2017-11-25T12:47:01.573Z,6.60
2017-11-25T12:52:04.114Z,6.60
2017-11-25T12:57:06.745Z,6.60
2017-11-25T13:02:09.481Z,6.60
2017-11-25T13:07:12.028Z,6.60
2017-11-25T13:12:14.579Z,6.60
2017-11-25T13:17:17.125Z,6.60
2017-11-25T13:22:19.675Z,6.60
2017-11-25T13:27:22.248Z,6.60
2017-11-25T13:32:24.800Z,6.60
2017-11-25T13:37:27.340Z,6.50
2017-11-25T13:42:31.624Z,6.50
2017-11-25T13:47:34.211Z,6.50
2017-11-25T13:52:37.528Z,6.50
2017-11-25T13:57:40.813Z,6.40
2017-11-25T14:02:43.385Z,6.40
2017-11-25T14:07:45.915Z,6.40
2017-11-25T14:12:48.485Z,6.40
2017-11-25T14:17:51.056Z,6.40
2017-11-25T14:22:53.636Z,6.40
2017-11-25T14:27:56.971Z,6.40
2017-11-25T14:32:59.540Z,6.30
2017-11-25T14:38:02.878Z,6.30
2017-11-25T14:43:06.217Z,6.30
2017-11-25T14:48:08.830Z,6.30
2017-11-25T14:53:11.421Z,6.30
2017-11-25T14:58:14.222Z,6.30
2017-11-25T15:03:16.786Z,6.20
2017-11-25T15:08:21.190Z,6.20
2017-11-25T15:13:23.757Z,6.10
2017-11-25T15:18:26.313Z,6.20
2017-11-25T15:23:29.684Z,6.10
2017-11-25T15:28:33.004Z,6.10
2017-11-25T15:33:35.557Z,6.10
2017-11-25T15:38:38.099Z,6.10
2017-11-25T15:43:40.639Z,6.00
2017-11-25T15:48:43.194Z,6.00
2017-11-25T15:53:45.774Z,6.00
2017-11-25T15:58:48.335Z,6.00
2017-11-25T16:03:50.909Z,6.00
2017-11-25T16:08:53.444Z,5.90
2017-11-25T16:13:55.992Z,5.90
2017-11-25T16:18:58.569Z,5.90
2017-11-25T16:24:01.132Z,5.90
2017-11-25T16:29:04.445Z,5.90
2017-11-25T16:34:07.013Z,5.80
2017-11-25T16:39:09.556Z,5.90
2017-11-25T16:44:12.876Z,5.80
2017-11-25T16:49:16.191Z,5.80
2017-11-25T16:54:19.507Z,5.80
2017-11-25T16:59:22.848Z,5.80
2017-11-25T17:04:25.390Z,5.80
2017-11-25T17:09:27.939Z,5.80
2017-11-25T17:14:30.488Z,5.80
2017-11-25T17:19:33.039Z,5.80
2017-11-25T17:24:35.614Z,5.80
2017-11-25T17:29:38.958Z,5.70
2017-11-25T17:34:41.508Z,5.70
2017-11-25T17:39:44.061Z,5.80
2017-11-25T17:44:46.605Z,5.80
2017-11-25T17:49:49.173Z,5.70
2017-11-25T17:54:51.730Z,5.70
2017-11-25T17:59:55.044Z,5.70
2017-11-25T18:04:58.338Z,5.70
2017-11-25T18:10:00.924Z,5.70
2017-11-25T18:15:03.560Z,5.70
2017-11-25T18:20:06.117Z,5.70
2017-11-25T18:25:08.731Z,5.70
2017-11-25T18:30:11.527Z,5.70
2017-11-25T18:35:14.099Z,5.70
2017-11-25T18:40:16.661Z,5.70
2017-11-25T18:45:19.980Z,5.70
2017-11-25T18:50:22.524Z,5.70
2017-11-25T18:55:25.082Z,5.70
2017-11-25T19:00:27.612Z,5.70
2017-11-25T19:05:30.210Z,5.70
2017-11-25T19:10:32.752Z,5.70
2017-11-25T19:15:35.291Z,5.70
2017-11-25T19:20:37.852Z,5.70
2017-11-25T19:25:40.388Z,5.70
2017-11-25T19:30:42.945Z,5.70
2017-11-25T19:35:45.583Z,5.70
2017-11-25T19:40:48.139Z,5.70
2017-11-25T19:45:50.694Z,5.70
2017-11-25T19:50:53.254Z,5.60
2017-11-25T19:55:56.564Z,5.60
2017-11-25T20:00:59.875Z,5.60
2017-11-25T20:06:02.415Z,5.60
2017-11-25T20:11:04.978Z,5.60
2017-11-25T20:16:07.559Z,5.50
2017-11-25T20:21:10.097Z,5.50
2017-11-25T20:26:12.648Z,5.50
2017-11-25T20:31:15.221Z,5.50
2017-11-25T20:36:17.757Z,5.50
2017-11-25T20:41:20.299Z,5.50
2017-11-25T20:46:22.871Z,5.40
2017-11-25T20:51:26.178Z,5.40
2017-11-25T20:56:28.703Z,5.40
2017-11-25T21:01:31.261Z,5.40
2017-11-25T21:06:33.808Z,5.40
2017-11-25T21:11:36.352Z,5.40
2017-11-25T21:16:38.900Z,5.30
2017-11-25T21:21:42.440Z,5.30
2017-11-25T21:26:44.972Z,5.30
2017-11-25T21:31:47.518Z,5.30
2017-11-25T21:36:50.068Z,5.30
2017-11-25T21:41:52.625Z,5.30
2017-11-25T21:46:55.157Z,5.30
2017-11-25T21:51:57.703Z,5.30
2017-11-25T21:57:00.280Z,5.20
2017-11-25T22:02:02.812Z,5.20
2017-11-25T22:07:05.390Z,5.20
2017-11-25T22:12:07.927Z,5.20
2017-11-25T22:17:10.495Z,5.20
2017-11-25T22:22:13.032Z,5.20
2017-11-25T22:27:15.577Z,5.20
2017-11-25T22:32:18.879Z,5.10
2017-11-25T22:37:21.420Z,5.10
2017-11-25T22:42:23.953Z,5.00
2017-11-25T22:47:26.504Z,5.00
2017-11-25T22:52:29.024Z,4.90
2017-11-25T22:57:31.556Z,4.90
2017-11-25T23:02:34.105Z,4.80
2017-11-25T23:07:37.403Z,4.70
2017-11-25T23:12:39.924Z,4.70
2017-11-25T23:17:42.461Z,4.70
2017-11-25T23:22:44.993Z,4.60
2017-11-25T23:27:48.297Z,4.60
2017-11-25T23:32:50.856Z,4.60
2017-11-25T23:37:53.409Z,4.60
2017-11-25T23:42:55.943Z,4.60
2017-11-25T23:47:58.476Z,4.50
2017-11-25T23:53:01.016Z,4.50
2017-11-25T23:58:03.544Z,4.50
